Time;durP1;ratioP1;P1;durP2;ratioP2;P2;SDS_P1;SDS_P2;PMS_P1;PMS_P2;Temp;Humidity;BMP_temperature;BMP_pressure;BME280_temperature;BME280_humidity;BME280_pressure;Samples;Min_cycle;Max_cycle;Signal;HPM_P1;HPM_P2
2023/04/12 00:02:07;;;;;;;;;4.50;4.25;;;;;10.95;59.56;99992.53;5042040;28;45389;-66
2023/04/12 00:04:33;;;;;;;;;6.75;4.00;;;;;10.96;59.36;99990.78;5042312;28;45177;-67
2023/04/12 00:06:59;;;;;;;;;6.25;4.00;;;;;10.95;59.48;99989.91;5042041;28;45418;-67
2023/04/12 00:09:29;;;;;;;;;3.00;3.00;;;;;10.94;59.89;99976.81;5057695;28;45484;-66
2023/04/12 00:11:55;;;;;;;;;4.50;3.50;;;;;10.97;59.09;99980.22;5040281;28;47982;-66
2023/04/12 00:14:21;;;;;;;;;8.00;4.75;;;;;10.95;59.70;99979.41;5042539;28;45242;-66
2023/04/12 00:16:46;;;;;;;;;6.75;4.75;;;;;10.96;59.77;99973.25;5041866;28;45294;-66
2023/04/12 00:19:11;;;;;;;;;5.50;4.75;;;;;10.95;59.73;99960.16;5041929;28;45409;-66
2023/04/12 00:21:37;;;;;;;;;5.25;4.00;;;;;10.94;59.61;99964.53;5041690;28;45420;-67
2023/04/12 00:24:02;;;;;;;;;3.75;3.75;;;;;10.95;59.93;99960.16;5041907;28;45285;-67
2023/04/12 00:26:28;;;;;;;;;4.50;4.50;;;;;10.94;59.99;99950.53;5057274;28;45252;-67
2023/04/12 00:28:53;;;;;;;;;5.00;3.75;;;;;10.95;60.13;99947.84;5041621;28;45395;-67
2023/04/12 00:31:18;;;;;;;;;8.25;5.50;;;;;10.93;59.94;99944.41;5024293;28;47135;-67
2023/04/12 00:33:43;;;;;;;;;23.00;21.25;;;;;10.95;60.00;99950.47;5036057;28;54183;-67
2023/04/12 00:36:09;;;;;;;;;7.50;6.75;;;;;10.93;60.14;99931.28;5040553;28;45349;-67
2023/04/12 00:38:35;;;;;;;;;6.75;5.00;;;;;10.96;59.93;99925.91;5040020;28;45958;-67
2023/04/12 00:41:03;;;;;;;;;5.00;4.25;;;;;10.87;60.58;99910.41;5023230;28;45389;-67
2023/04/12 00:43:29;;;;;;;;;5.25;3.75;;;;;10.87;60.68;99919.16;5056685;27;45269;-67
2023/04/12 00:45:56;;;;;;;;;7.75;5.50;;;;;10.96;60.51;99917.19;5041321;28;45463;-67
2023/04/12 00:48:23;;;;;;;;;9.25;5.50;;;;;10.98;60.33;99916.22;5056909;28;45182;-67
2023/04/12 00:50:50;;;;;;;;;6.50;4.75;;;;;11.00;60.72;99909.13;5039770;28;48368;-67
2023/04/12 00:53:17;;;;;;;;;6.00;3.50;;;;;10.92;60.59;99881.34;5041310;28;45300;-67
2023/04/12 00:55:43;;;;;;;;;3.75;2.25;;;;;10.95;60.63;99881.28;5039819;28;45386;-67
2023/04/12 00:58:09;;;;;;;;;4.25;3.50;;;;;10.98;60.61;99879.44;5041093;28;45152;-67
2023/04/12 01:00:34;;;;;;;;;5.75;5.00;;;;;10.98;60.74;99870.66;5041034;28;45241;-67
2023/04/12 01:03:01;;;;;;;;;6.25;4.00;;;;;10.97;60.63;99856.66;5056902;28;45836;-67
2023/04/12 01:05:27;;;;;;;;;6.00;6.00;;;;;10.95;60.85;99850.59;5041167;28;45347;-67
2023/04/12 01:08:04;;;;;;;;;5.00;5.00;;;;;11.00;60.65;99859.19;5041049;28;45621;-67
2023/04/12 01:11:13;;;;;;;;;7.00;4.00;;;;;11.00;60.78;99864.44;5040910;28;45464;-67
2023/04/12 01:13:44;;;;;;;;;4.75;3.50;;;;;10.96;60.85;99817.28;5039233;28;45284;-67
2023/04/12 01:16:44;;;;;;;;;1.00;1.00;;;;;11.03;60.66;99826.69;5039727;28;45322;-68
2023/04/12 01:19:30;;;;;;;;;6.75;4.00;;;;;11.03;60.70;99808.28;5040744;28;45355;-66
2023/04/12 01:22:37;;;;;;;;;5.50;3.50;;;;;11.03;60.84;99819.69;5038996;28;47713;-67
2023/04/12 01:25:15;;;;;;;;;6.50;3.75;;;;;11.03;60.70;99803.03;5040577;28;45220;-67
2023/04/12 01:27:47;;;;;;;;;9.00;6.25;;;;;11.06;60.89;99801.16;5039773;28;45363;-67
2023/04/12 01:30:18;;;;;;;;;6.00;3.75;;;;;11.04;60.86;99804.75;5037788;28;45565;-68
2023/04/12 01:32:49;;;;;;;;;6.75;5.00;;;;;11.00;60.72;99782.94;5026809;28;45723;-67
2023/04/12 01:35:16;;;;;;;;;7.00;4.50;;;;;11.01;60.87;99789.94;5040437;28;45514;-67
2023/04/12 01:37:43;;;;;;;;;5.00;4.25;;;;;11.09;60.75;99794.09;5040797;28;45479;-67
2023/04/12 01:40:09;;;;;;;;;3.25;3.25;;;;;11.06;60.84;99792.44;5040227;28;45400;-67
2023/04/12 01:42:35;;;;;;;;;7.00;6.25;;;;;11.04;60.97;99760.06;5023082;28;45440;-67
2023/04/12 01:45:02;;;;;;;;;3.75;2.75;;;;;11.12;60.74;99773.84;5029392;28;45322;-68
2023/04/12 01:47:28;;;;;;;;;4.50;4.50;;;;;11.02;60.81;99746.97;5038841;28;45262;-67
2023/04/12 01:50:21;;;;;;;;;3.00;3.00;;;;;11.10;61.00;99756.38;5029350;28;45496;-67
2023/04/12 01:53:05;;;;;;;;;4.75;3.75;;;;;11.11;60.90;99748.44;5048372;28;46378;-68
2023/04/12 01:55:33;;;;;;;;;6.50;5.50;;;;;11.12;61.10;99749.28;5018840;28;45396;-68
2023/04/12 01:58:02;;;;;;;;;6.25;5.25;;;;;11.12;60.94;99738.78;5020214;28;45502;-67
2023/04/12 02:00:29;;;;;;;;;5.50;5.00;;;;;11.05;61.04;99720.56;5036091;28;45460;-68
2023/04/12 02:02:56;;;;;;;;;5.00;3.50;;;;;11.13;61.05;99719.47;5029660;28;46253;-68
2023/04/12 02:05:22;;;;;;;;;4.25;4.00;;;;;11.05;61.48;99712.69;5018817;28;45345;-68
2023/04/12 02:07:52;;;;;;;;;3.00;2.25;;;;;11.11;60.97;99700.28;5029613;28;45413;-68
2023/04/12 02:10:29;;;;;;;;;5.50;3.50;;;;;11.13;60.88;99712.44;5022231;28;45390;-68
2023/04/12 02:12:59;;;;;;;;;4.50;4.00;;;;;11.15;61.12;99715.03;5018739;28;45492;-68
2023/04/12 02:15:26;;;;;;;;;7.00;4.00;;;;;11.16;61.00;99700.97;5015702;28;45340;-68
2023/04/12 02:17:52;;;;;;;;;6.00;5.00;;;;;11.17;61.35;99700.03;5020113;28;45380;-68
2023/04/12 02:20:19;;;;;;;;;6.00;5.50;;;;;11.17;61.16;99706.19;5019736;28;45586;-68
2023/04/12 02:22:45;;;;;;;;;5.00;4.00;;;;;11.17;61.29;99686.88;5031642;28;45287;-68
2023/04/12 02:25:11;;;;;;;;;4.25;2.00;;;;;11.17;61.20;99674.63;5020173;28;45337;-68
2023/04/12 02:27:37;;;;;;;;;2.25;2.00;;;;;11.12;61.04;99662.53;5031913;28;45350;-69
2023/04/12 02:30:06;;;;;;;;;4.50;3.50;;;;;11.18;61.29;99667.56;5021916;28;45394;-68
2023/04/12 02:32:43;;;;;;;;;4.50;4.00;;;;;11.18;61.31;99668.47;5031994;28;47076;-68
2023/04/12 02:35:16;;;;;;;;;5.00;3.25;;;;;11.18;61.54;99657.06;5039811;28;45253;-68
2023/04/12 02:37:42;;;;;;;;;10.00;5.50;;;;;10.98;61.37;99616.53;5038430;28;45327;-68
2023/04/12 02:40:10;;;;;;;;;6.00;4.25;;;;;11.20;61.43;99642.94;5054857;28;46134;-67
2023/04/12 02:42:35;;;;;;;;;3.75;3.75;;;;;11.21;61.45;99641.19;5039300;28;45238;-68
2023/04/12 02:45:01;;;;;;;;;7.75;5.75;;;;;11.20;61.38;99645.56;5038497;28;45341;-68
2023/04/12 02:47:27;;;;;;;;;4.00;2.00;;;;;11.25;61.45;99647.22;5055168;27;45241;-68
2023/04/12 02:49:52;;;;;;;;;2.75;2.50;;;;;11.19;61.63;99629.84;5039635;28;45150;-68
2023/04/12 02:52:18;;;;;;;;;5.25;4.00;;;;;11.11;61.62;99603.00;5038226;28;45311;-68
2023/04/12 02:54:44;;;;;;;;;6.00;4.75;;;;;11.16;61.64;99599.28;5039595;28;45462;-68
2023/04/12 02:57:10;;;;;;;;;4.75;2.50;;;;;11.23;61.54;99602.53;5039407;27;45363;-68
2023/04/12 02:59:36;;;;;;;;;6.25;4.75;;;;;11.22;61.56;99590.31;5038252;28;45427;-69
2023/04/12 03:02:01;;;;;;;;;5.75;5.25;;;;;11.22;61.69;99598.22;5037998;28;45578;-68
2023/04/12 03:04:29;;;;;;;;;3.75;2.75;;;;;11.29;61.85;99612.00;5039692;28;45441;-68
2023/04/12 03:06:55;;;;;;;;;6.25;5.00;;;;;11.28;61.68;99598.00;5039520;28;45220;-68
2023/04/12 03:09:21;;;;;;;;;3.75;3.75;;;;;11.30;61.93;99593.53;5039278;28;45182;-68
2023/04/12 03:11:47;;;;;;;;;5.25;3.75;;;;;11.27;61.91;99582.25;5037523;28;45630;-68
2023/04/12 03:14:12;;;;;;;;;4.25;3.00;;;;;11.32;62.17;99591.72;5038040;28;45521;-68
2023/04/12 03:16:38;;;;;;;;;6.50;3.00;;;;;11.32;61.78;99573.31;5038050;28;45229;-68
2023/04/12 03:19:05;;;;;;;;;3.00;2.00;;;;;11.36;62.17;99580.16;5038208;28;45410;-68
2023/04/12 03:21:30;;;;;;;;;4.75;4.00;;;;;11.37;62.21;99571.34;5054641;28;45429;-68
2023/04/12 03:23:55;;;;;;;;;5.00;4.00;;;;;11.38;62.23;99559.06;5039294;28;45315;-68
2023/04/12 03:26:21;;;;;;;;;3.75;2.50;;;;;11.39;62.22;99558.16;5039004;28;46683;-68
2023/04/12 03:28:46;;;;;;;;;3.00;2.75;;;;;11.41;62.50;99550.19;5039020;28;45254;-68
2023/04/12 03:31:20;;;;;;;;;4.50;4.50;;;;;11.41;62.11;99547.56;5023168;28;45494;-68
2023/04/12 03:33:45;;;;;;;;;4.50;2.25;;;;;11.46;62.33;99545.63;5036845;28;45429;-68
2023/04/12 03:36:11;;;;;;;;;2.00;2.00;;;;;11.49;62.59;99537.63;5042584;28;45341;-68
2023/04/12 03:38:37;;;;;;;;;4.25;2.50;;;;;11.51;62.46;99541.91;5057892;27;45461;-68
2023/04/12 03:41:02;;;;;;;;;3.00;1.75;;;;;11.52;62.18;99538.38;5042048;28;46299;-68
2023/04/12 03:43:32;;;;;;;;;2.50;2.50;;;;;11.54;62.43;99533.88;5042302;28;45241;-68
2023/04/12 03:45:57;;;;;;;;;4.00;2.75;;;;;11.58;62.22;99539.91;5041237;28;45250;-68
2023/04/12 03:48:23;;;;;;;;;2.50;2.50;;;;;11.26;62.39;99489.38;5042414;28;45253;-68
2023/04/12 03:50:53;;;;;;;;;3.75;3.00;;;;;11.61;62.43;99545.06;5042496;28;45189;-68
2023/04/12 03:53:19;;;;;;;;;6.50;2.25;;;;;11.65;62.50;99543.19;5042525;28;45231;-68
2023/04/12 03:55:47;;;;;;;;;2.00;1.25;;;;;11.67;62.74;99550.09;5057539;28;45264;-67
2023/04/12 03:58:15;;;;;;;;;1.75;1.75;;;;;11.68;62.53;99551.81;5040668;28;45451;-67
2023/04/12 04:00:41;;;;;;;;;1.00;1.00;;;;;11.71;62.70;99578.00;5041950;28;45502;-67
2023/04/12 04:03:07;;;;;;;;;4.00;1.00;;;;;11.67;62.56;99558.00;5057532;27;45276;-67
2023/04/12 04:05:33;;;;;;;;;1.00;1.00;;;;;11.72;62.52;99570.97;5041988;28;45328;-67
2023/04/12 04:08:01;;;;;;;;;1.00;0.00;;;;;11.69;62.45;99561.41;5042194;28;45205;-67
2023/04/12 04:10:29;;;;;;;;;0.00;0.00;;;;;11.75;62.40;99570.84;5041864;28;46915;-67
2023/04/12 04:12:55;;;;;;;;;0.00;0.00;;;;;11.73;62.34;99561.31;5040338;28;45411;-67
2023/04/12 04:15:21;;;;;;;;;0.50;0.00;;;;;11.75;62.09;99565.59;5057646;27;45418;-68
2023/04/12 04:17:47;;;;;;;;;0.00;0.00;;;;;11.72;62.15;99555.16;5042145;28;45316;-67
2023/04/12 04:20:13;;;;;;;;;0.00;0.00;;;;;11.73;62.03;99556.88;5041757;28;46973;-67
2023/04/12 04:22:41;;;;;;;;;0.00;0.00;;;;;11.70;61.95;99563.13;5041921;28;45245;-67
2023/04/12 04:25:07;;;;;;;;;0.00;0.00;;;;;11.70;61.78;99557.88;5040587;28;45251;-67
2023/04/12 04:27:33;;;;;;;;;0.00;0.00;;;;;11.66;61.61;99553.63;5057022;28;45612;-67
2023/04/12 04:30:03;;;;;;;;;0.00;0.00;;;;;11.68;61.74;99564.97;5035024;28;46270;-67
2023/04/12 04:32:30;;;;;;;;;0.00;0.00;;;;;11.67;61.60;99563.25;5026122;28;45305;-67
2023/04/12 04:34:58;;;;;;;;;0.50;0.00;;;;;11.67;61.55;99563.25;5042088;28;45285;-68
2023/04/12 04:37:25;;;;;;;;;1.50;0.00;;;;;11.66;61.64;99558.91;5040336;28;45630;-67
2023/04/12 04:39:50;;;;;;;;;0.00;0.00;;;;;11.65;61.53;99553.72;5056824;28;45542;-67
2023/04/12 04:42:16;;;;;;;;;1.00;1.00;;;;;11.60;61.05;99550.38;5040797;28;45336;-67
2023/04/12 04:44:42;;;;;;;;;0.00;0.00;;;;;11.62;61.31;99562.56;5040702;28;45412;-68
2023/04/12 04:47:07;;;;;;;;;0.00;0.00;;;;;11.62;61.26;99565.22;5041463;28;45450;-67
2023/04/12 04:49:33;;;;;;;;;1.00;1.00;;;;;11.62;61.23;99565.22;5041499;28;46029;-67
2023/04/12 04:51:59;;;;;;;;;0.00;0.00;;;;;11.58;61.05;99560.94;5056926;28;45308;-68
2023/04/12 04:54:24;;;;;;;;;0.75;0.75;;;;;11.62;61.27;99566.97;5041474;28;45283;-68
2023/04/12 04:56:49;;;;;;;;;0.00;0.00;;;;;11.49;61.19;99549.00;5041185;28;45224;-68
2023/04/12 04:59:16;;;;;;;;;9.00;8.00;;;;;11.58;61.01;99568.00;5041105;28;45240;-68
2023/04/12 05:01:42;;;;;;;;;0.00;0.00;;;;;11.57;61.02;99559.22;5041220;28;45258;-68
2023/04/12 05:04:07;;;;;;;;;1.00;1.00;;;;;11.57;61.01;99551.34;5041706;28;45762;-68
2023/04/12 05:06:33;;;;;;;;;0.00;0.00;;;;;11.53;61.21;99560.25;5041205;28;45447;-68
2023/04/12 05:09:00;;;;;;;;;0.50;0.50;;;;;11.51;61.10;99547.19;5039691;28;45332;-69
2023/04/12 05:11:26;;;;;;;;;1.00;1.00;;;;;11.56;60.97;99560.16;5039716;28;45382;-68
2023/04/12 05:13:52;;;;;;;;;0.00;0.00;;;;;11.57;60.99;99551.34;5041145;28;45469;-67
2023/04/12 05:16:17;;;;;;;;;0.00;0.00;;;;;11.51;60.93;99535.81;5039867;28;45592;-68
2023/04/12 05:18:43;;;;;;;;;0.00;0.00;;;;;11.54;61.04;99536.53;5040788;28;45491;-68
2023/04/12 05:21:08;;;;;;;;;0.00;0.00;;;;;11.55;60.91;99526.88;5041144;28;45241;-68
2023/04/12 05:23:36;;;;;;;;;0.00;0.00;;;;;11.55;60.74;99526.88;5041174;28;45473;-68
2023/04/12 05:26:01;;;;;;;;;3.75;1.25;;;;;11.55;60.90;99516.34;5040954;28;45270;-68
2023/04/12 05:28:27;;;;;;;;;1.75;0.00;;;;;11.54;60.91;99512.00;5040566;28;45342;-68
2023/04/12 05:30:52;;;;;;;;;2.00;2.00;;;;;11.56;60.87;99531.22;5027829;28;45145;-67
2023/04/12 05:33:17;;;;;;;;;1.50;1.50;;;;;11.53;60.75;99542.72;5032221;28;45265;-67
2023/04/12 05:35:43;;;;;;;;;2.50;1.50;;;;;11.56;60.97;99560.16;5040866;28;45291;-67
2023/04/12 05:38:08;;;;;;;;;1.75;1.00;;;;;11.55;60.93;99559.28;5056337;28;46501;-67
2023/04/12 05:40:35;;;;;;;;;0.50;0.50;;;;;11.54;60.99;99562.84;5038955;28;45529;-67
2023/04/12 05:43:00;;;;;;;;;0.50;0.50;;;;;11.49;60.93;99553.41;5040638;28;45325;-67
2023/04/12 05:45:26;;;;;;;;;0.00;0.00;;;;;11.48;61.09;99562.22;5040567;28;45315;-67
2023/04/12 05:47:53;;;;;;;;;1.50;0.00;;;;;11.52;60.98;99571.69;5039276;28;46291;-67
2023/04/12 05:50:19;;;;;;;;;2.00;2.00;;;;;11.51;60.69;99572.63;5040462;28;45248;-67
2023/04/12 05:52:45;;;;;;;;;1.00;1.00;;;;;11.51;61.05;99575.28;5040356;28;45322;-67
2023/04/12 05:55:10;;;;;;;;;1.00;1.00;;;;;11.51;60.85;99577.91;5039908;28;45220;-67
2023/04/12 05:57:35;;;;;;;;;1.00;1.00;;;;;11.49;61.14;99579.72;5040205;28;46095;-67
2023/04/12 06:00:01;;;;;;;;;2.50;2.50;;;;;11.48;61.13;99599.03;5040872;28;45219;-68
2023/04/12 06:02:26;;;;;;;;;2.50;2.50;;;;;11.43;61.14;99609.72;5040617;28;45576;-66
2023/04/12 06:04:52;;;;;;;;;3.00;2.75;;;;;11.38;60.84;99619.56;5040342;28;45308;-68
2023/04/12 06:07:18;;;;;;;;;1.75;1.75;;;;;11.32;60.98;99633.78;5040245;28;45281;-68
2023/04/12 06:09:44;;;;;;;;;3.00;2.50;;;;;11.27;60.92;99627.84;5040079;28;45810;-68
2023/04/12 06:12:09;;;;;;;;;2.75;2.00;;;;;11.21;60.74;99633.31;5040233;28;45348;-68
2023/04/12 06:14:34;;;;;;;;;0.75;0.75;;;;;11.17;60.34;99631.66;5040317;28;45284;-68
2023/04/12 06:17:00;;;;;;;;;2.50;0.75;;;;;11.12;60.46;99626.59;5040598;28;46254;-68
2023/04/12 06:19:26;;;;;;;;;2.00;1.00;;;;;11.09;60.50;99629.31;5039995;28;45467;-68
2023/04/12 06:21:51;;;;;;;;;1.50;1.50;;;;;11.02;60.20;99636.56;5055746;28;45294;-68
2023/04/12 06:24:16;;;;;;;;;2.00;1.00;;;;;10.96;60.28;99628.03;5038873;28;45380;-67
2023/04/12 06:26:45;;;;;;;;;0.00;0.00;;;;;10.93;60.38;99623.72;5039953;28;45371;-67
2023/04/12 06:29:11;;;;;;;;;1.00;1.00;;;;;10.88;60.36;99638.78;5039885;28;45391;-67
2023/04/12 06:31:36;;;;;;;;;1.00;1.00;;;;;10.81;60.24;99643.38;5020293;28;45234;-67
2023/04/12 06:34:01;;;;;;;;;3.00;2.00;;;;;10.76;60.12;99647.06;5038665;28;45336;-67
2023/04/12 06:36:27;;;;;;;;;1.50;1.00;;;;;10.70;59.95;99649.00;5039862;28;46060;-68
2023/04/12 06:38:53;;;;;;;;;2.50;1.25;;;;;10.71;59.92;99655.09;5039836;28;45230;-67
2023/04/12 06:41:19;;;;;;;;;1.50;1.50;;;;;10.65;59.85;99650.88;5038390;28;45604;-67
2023/04/12 06:43:44;;;;;;;;;2.50;2.50;;;;;10.64;59.92;99653.56;5039682;28;45308;-68
2023/04/12 06:46:10;;;;;;;;;2.75;1.00;;;;;10.61;59.99;99645.78;5039926;28;45413;-67
2023/04/12 06:48:35;;;;;;;;;4.00;3.75;;;;;10.60;59.77;99644.06;5039790;28;45293;-68
2023/04/12 06:51:00;;;;;;;;;4.00;3.00;;;;;10.54;59.81;99635.47;5039413;28;49839;-68
2023/04/12 06:53:25;;;;;;;;;4.00;3.00;;;;;10.54;59.72;99630.22;5039435;28;49276;-68
2023/04/12 06:55:52;;;;;;;;;6.00;3.00;;;;;10.51;60.17;99642.59;5038074;28;45461;-68
2023/04/12 06:58:18;;;;;;;;;3.00;3.00;;;;;10.53;59.86;99644.25;5039465;28;45384;-68
2023/04/12 07:00:43;;;;;;;;;2.75;2.75;;;;;10.52;59.91;99641.69;5039474;28;45905;-68
2023/04/12 07:03:09;;;;;;;;;6.25;5.00;;;;;10.54;59.97;99656.50;5021538;28;45434;-68
2023/04/12 07:05:38;;;;;;;;;4.50;4.50;;;;;10.54;60.10;99661.75;5041655;28;45473;-68
2023/04/12 07:08:03;;;;;;;;;4.50;4.50;;;;;10.52;59.96;99660.06;5043053;28;45270;-68
2023/04/12 07:10:31;;;;;;;;;7.00;7.00;;;;;10.57;59.91;99668.69;5042874;28;45435;-68
2023/04/12 07:13:01;;;;;;;;;4.50;4.50;;;;;10.54;59.76;99658.25;5042649;28;45343;-68
2023/04/12 07:15:27;;;;;;;;;4.00;4.00;;;;;10.59;59.94;99672.13;5041686;28;46794;-68
2023/04/12 07:17:52;;;;;;;;;7.25;4.00;;;;;10.59;60.03;99666.88;5042786;28;45169;-68
2023/04/12 07:20:17;;;;;;;;;5.25;3.50;;;;;10.56;60.09;99661.69;5042910;28;45239;-68
2023/04/12 07:22:43;;;;;;;;;7.75;5.00;;;;;10.64;59.98;99667.59;5042774;28;45207;-68
2023/04/12 07:25:09;;;;;;;;;2.75;2.75;;;;;10.67;60.07;99659.59;5058141;28;47049;-68
2023/04/12 07:27:35;;;;;;;;;3.00;3.00;;;;;10.69;59.84;99659.53;5042317;28;45350;-68
2023/04/12 07:30:00;;;;;;;;;3.50;2.00;;;;;10.70;59.79;99666.50;5035483;28;45312;-68
2023/04/12 07:32:26;;;;;;;;;1.00;1.00;;;;;10.71;59.94;99662.97;5027793;28;45314;-68
2023/04/12 07:34:51;;;;;;;;;2.00;2.00;;;;;10.70;59.81;99664.75;5022604;28;45949;-68
2023/04/12 07:37:17;;;;;;;;;5.50;2.50;;;;;10.73;59.81;99648.03;5022566;28;45377;-68
2023/04/12 07:39:43;;;;;;;;;2.75;2.75;;;;;10.76;59.81;99641.81;5040860;28;45425;-69
2023/04/12 07:42:08;;;;;;;;;1.00;1.00;;;;;10.77;59.72;99628.63;5057579;28;45438;-69
2023/04/12 07:44:34;;;;;;;;;1.00;1.00;;;;;10.75;59.79;99619.91;5022705;28;45364;-69
2023/04/12 07:46:59;;;;;;;;;1.75;1.75;;;;;10.81;59.76;99621.50;5022505;28;45226;-69
2023/04/12 07:49:24;;;;;;;;;1.25;1.00;;;;;10.86;59.64;99622.22;5022283;28;45223;-69
2023/04/12 07:51:50;;;;;;;;;2.00;1.00;;;;;10.82;59.55;99610.09;5022517;28;45233;-69
2023/04/12 07:54:15;;;;;;;;;0.50;0.50;;;;;10.85;59.54;99605.56;5022314;28;45368;-69
2023/04/12 07:56:40;;;;;;;;;0.00;0.00;;;;;10.98;59.56;99610.41;5022202;28;45175;-70
2023/04/12 07:59:06;;;;;;;;;0.25;0.25;;;;;11.00;59.35;99603.34;5022141;28;45246;-69
2023/04/12 08:01:31;;;;;;;;;2.00;2.00;;;;;11.02;59.61;99612.91;5022279;28;45230;-69
2023/04/12 08:03:57;;;;;;;;;1.00;1.00;;;;;11.03;59.65;99611.97;5022048;28;46018;-69
2023/04/12 08:06:22;;;;;;;;;0.00;0.00;;;;;11.10;59.37;99623.13;5022260;28;45221;-69
2023/04/12 08:08:47;;;;;;;;;1.00;1.00;;;;;11.13;59.53;99622.19;5022123;28;45264;-69
2023/04/12 08:11:12;;;;;;;;;1.00;1.00;;;;;11.14;59.43;99622.13;5022000;28;45179;-69
2023/04/12 08:13:38;;;;;;;;;0.75;0.75;;;;;11.15;59.16;99623.00;5021729;28;45331;-69
2023/04/12 08:16:03;;;;;;;;;1.00;0.00;;;;;11.19;59.34;99624.59;5021524;28;45158;-69
2023/04/12 08:18:29;;;;;;;;;1.25;1.25;;;;;11.22;59.23;99633.25;5021972;28;45534;-70
2023/04/12 08:20:56;;;;;;;;;4.50;3.00;;;;;11.20;59.04;99616.66;5022012;28;45345;-69
2023/04/12 08:23:22;;;;;;;;;1.25;1.00;;;;;11.25;59.24;99624.38;5021927;28;46409;-69
2023/04/12 08:25:47;;;;;;;;;1.00;0.25;;;;;11.29;59.13;99636.50;5033094;28;45470;-69
2023/04/12 08:28:12;;;;;;;;;1.50;0.00;;;;;11.31;58.47;99642.59;5022363;28;45230;-69
2023/04/12 08:30:38;;;;;;;;;2.00;1.00;;;;;11.35;58.91;99652.06;5022712;28;45293;-69
2023/04/12 08:33:03;;;;;;;;;0.00;0.00;;;;;11.36;58.50;99664.31;5039361;28;47168;-69
2023/04/12 08:35:29;;;;;;;;;0.00;0.00;;;;;11.33;58.45;99666.19;5040462;28;45338;-69
2023/04/12 08:37:54;;;;;;;;;0.00;0.00;;;;;11.43;58.54;99685.16;5041791;28;45314;-69
2023/04/12 08:40:20;;;;;;;;;0.00;0.00;;;;;11.46;58.51;99679.78;5041248;28;45482;-69
2023/04/12 08:42:46;;;;;;;;;0.50;0.00;;;;;11.47;58.38;99677.13;5040046;28;45940;-69
2023/04/12 08:45:12;;;;;;;;;0.00;0.00;;;;;11.51;58.29;99678.72;5041588;28;45244;-69
2023/04/12 08:47:43;;;;;;;;;0.00;0.00;;;;;11.49;58.06;99680.53;5041590;28;45233;-70
2023/04/12 08:50:12;;;;;;;;;0.00;0.00;;;;;11.54;57.82;99701.44;5041471;28;45253;-70
2023/04/12 08:52:38;;;;;;;;;0.00;0.00;;;;;11.53;57.83;99707.59;5041187;27;45234;-69
2023/04/12 08:55:08;;;;;;;;;0.00;0.00;;;;;11.53;57.66;99707.59;5041261;28;45518;-70
2023/04/12 08:57:35;;;;;;;;;0.50;0.50;;;;;11.51;57.29;99701.56;5041455;28;45303;-71
2023/04/12 09:00:02;;;;;;;;;0.00;0.00;;;;;11.51;57.27;99704.19;5041223;28;45363;-71
2023/04/12 09:02:27;;;;;;;;;1.00;0.00;;;;;11.52;57.25;99724.28;5041263;28;47056;-70
2023/04/12 09:04:53;;;;;;;;;0.00;0.00;;;;;11.52;57.12;99703.25;5040983;28;45237;-71
2023/04/12 09:07:22;;;;;;;;;1.50;0.50;;;;;11.50;57.31;99699.81;5041819;28;45245;-71
2023/04/12 09:09:48;;;;;;;;;0.00;0.00;;;;;11.55;57.15;99719.78;5041008;28;45621;-70
2023/04/12 09:12:14;;;;;;;;;0.00;0.00;;;;;11.56;57.02;99707.50;5040856;28;45320;-71
2023/04/12 09:14:43;;;;;;;;;1.00;0.00;;;;;11.59;56.96;99707.41;5040946;28;45181;-69
2023/04/12 09:17:27;;;;;;;;;0.00;0.00;;;;;11.59;56.86;99715.28;5041303;28;45577;-70
2023/04/12 09:19:54;;;;;;;;;0.75;0.75;;;;;11.61;56.91;99697.69;5040749;28;45473;-70
2023/04/12 09:22:35;;;;;;;;;0.00;0.00;;;;;11.66;56.79;99713.28;5040860;28;46175;-71
2023/04/12 09:25:01;;;;;;;;;0.00;0.00;;;;;11.69;56.90;99723.72;5039223;28;45286;-69
2023/04/12 09:27:28;;;;;;;;;0.00;0.00;;;;;11.73;56.69;99714.81;5040864;28;45263;-71
2023/04/12 09:30:20;;;;;;;;;0.00;0.00;;;;;11.78;56.64;99712.00;5034600;28;45305;-70
2023/04/12 09:32:48;;;;;;;;;1.00;0.00;;;;;11.79;56.72;99714.59;5028830;28;45325;-71
2023/04/12 09:35:13;;;;;;;;;0.00;0.00;;;;;11.89;56.66;99730.06;5040714;28;45327;-70
2023/04/12 09:37:39;;;;;;;;;0.00;0.00;;;;;11.90;56.51;99715.97;5040744;28;45427;-70
2023/04/12 09:40:09;;;;;;;;;0.25;0.00;;;;;11.93;56.22;99713.25;5040317;28;45431;-70
2023/04/12 09:42:47;;;;;;;;;0.00;0.00;;;;;11.96;56.19;99715.78;5040233;28;45915;-70
2023/04/12 09:45:24;;;;;;;;;0.00;0.00;;;;;12.08;56.02;99722.41;5039535;28;45273;-71
2023/04/12 09:47:51;;;;;;;;;2.00;0.00;;;;;12.10;56.00;99718.78;5055934;28;45382;-72
2023/04/12 09:50:21;;;;;;;;;0.50;0.50;;;;;12.17;56.03;99722.88;5039086;28;45402;-71
2023/04/12 09:52:47;;;;;;;;;1.00;0.00;;;;;12.24;55.94;99727.94;5055842;27;45642;-70
2023/04/12 09:55:13;;;;;;;;;0.00;0.00;;;;;12.27;55.68;99717.28;5055616;28;45512;-71
2023/04/12 09:57:42;;;;;;;;;0.25;0.00;;;;;12.33;55.73;99741.63;5040348;28;45170;-69
2023/04/12 10:00:16;;;;;;;;;1.00;1.00;;;;;12.40;55.24;99730.84;5040234;28;45478;-71
2023/04/12 10:02:43;;;;;;;;;0.00;0.00;;;;;12.44;55.18;99737.72;5040360;28;45416;-70
2023/04/12 10:05:18;;;;;;;;;0.00;0.00;;;;;12.45;55.06;99727.16;5040137;28;45410;-70
2023/04/12 10:07:44;;;;;;;;;0.00;0.00;;;;;12.47;55.28;99741.09;5040517;28;45342;-71
2023/04/12 10:10:11;;;;;;;;;2.00;1.00;;;;;12.49;55.25;99736.66;5039982;28;45494;-70
2023/04/12 10:12:38;;;;;;;;;0.50;0.50;;;;;12.50;54.81;99743.63;5040169;28;46279;-71
2023/04/12 10:15:06;;;;;;;;;0.25;0.00;;;;;12.55;54.43;99737.31;5038728;28;45585;-70
2023/04/12 10:17:36;;;;;;;;;0.25;0.00;;;;;12.57;54.39;99728.44;5040709;28;45340;-71
2023/04/12 10:20:02;;;;;;;;;0.00;0.00;;;;;12.60;54.29;99723.06;5038629;28;45620;-70
2023/04/12 10:22:28;;;;;;;;;1.75;0.00;;;;;12.64;54.25;99729.06;5040070;28;45933;-71
2023/04/12 10:24:53;;;;;;;;;0.00;0.00;;;;;12.61;54.30;99735.31;5039743;28;45241;-71
2023/04/12 10:27:26;;;;;;;;;2.00;0.00;;;;;12.77;53.88;99714.47;5028063;28;45597;-68
2023/04/12 10:29:51;;;;;;;;;0.00;0.00;;;;;12.83;54.15;99708.13;5022208;28;45531;-71
2023/04/12 10:32:21;;;;;;;;;0.00;0.00;;;;;13.06;53.55;99746.75;5023823;28;45214;-71
2023/04/12 10:34:57;;;;;;;;;0.50;0.50;;;;;13.25;53.59;99738.94;5039766;28;45400;-71
2023/04/12 10:38:02;;;;;;;;;1.00;1.00;;;;;13.46;53.83;99733.72;5039873;28;45300;-70
2023/04/12 10:40:32;;;;;;;;;0.50;0.50;;;;;13.65;53.86;99723.25;5038837;28;45523;-70
2023/04/12 10:43:19;;;;;;;;;0.00;0.00;;;;;14.04;53.60;99730.34;5039402;28;46062;-70
2023/04/12 10:45:45;;;;;;;;;0.75;0.75;;;;;14.29;53.18;99730.09;5038222;27;45300;-69
2023/04/12 10:48:32;;;;;;;;;0.25;0.00;;;;;14.58;53.06;99722.59;5038490;28;45307;-70
2023/04/12 10:51:24;;;;;;;;;2.00;1.00;;;;;14.83;52.70;99728.53;5039538;28;45411;-70
2023/04/12 10:54:13;;;;;;;;;1.00;0.00;;;;;15.05;52.96;99737.13;5039332;28;46204;-69
2023/04/12 10:56:39;;;;;;;;;3.00;0.75;;;;;15.34;52.55;99723.41;5037834;28;45767;-69
2023/04/12 10:59:15;;;;;;;;;1.25;0.00;;;;;15.57;52.07;99736.34;5039302;28;45329;-69
2023/04/12 11:02:01;;;;;;;;;1.00;0.00;;;;;15.75;51.85;99739.84;5039653;28;45223;-69
2023/04/12 11:04:26;;;;;;;;;0.00;0.00;;;;;15.86;51.85;99736.66;5039177;28;45251;-69
2023/04/12 11:06:51;;;;;;;;;0.00;0.00;;;;;15.93;51.13;99753.09;5054722;28;45428;-70
2023/04/12 11:09:24;;;;;;;;;1.00;0.00;;;;;15.97;51.04;99743.19;5039461;28;45228;-70
2023/04/12 11:11:50;;;;;;;;;2.75;2.00;;;;;15.94;50.75;99741.56;5039252;28;45275;-70
2023/04/12 11:14:16;;;;;;;;;0.00;0.00;;;;;15.90;50.24;99743.50;5054665;28;47554;-70
2023/04/12 11:17:14;;;;;;;;;2.00;1.00;;;;;15.84;50.22;99745.63;5039251;28;45236;-71
2023/04/12 11:19:50;;;;;;;;;3.00;1.00;;;;;15.77;50.22;99742.38;5039145;28;45398;-71
2023/04/12 11:22:16;;;;;;;;;1.00;1.00;;;;;15.72;50.26;99744.44;5037746;28;45298;-71
2023/04/12 11:24:47;;;;;;;;;1.50;0.00;;;;;15.65;49.80;99741.25;5038833;28;46099;-72
2023/04/12 11:27:15;;;;;;;;;0.00;0.00;;;;;15.59;49.51;99745.03;5054383;28;45527;-71
2023/04/12 11:29:42;;;;;;;;;0.00;0.00;;;;;15.58;49.51;99742.47;5035617;28;45253;-70
2023/04/12 11:32:14;;;;;;;;;0.50;0.50;;;;;15.56;49.08;99741.72;5020849;28;45483;-71
2023/04/12 11:34:41;;;;;;;;;2.25;1.25;;;;;15.54;49.49;99744.44;5038834;28;46089;-71
2023/04/12 11:37:08;;;;;;;;;1.75;0.75;;;;;15.57;49.26;99744.28;5039216;28;45344;-70
2023/04/12 11:39:38;;;;;;;;;0.50;0.00;;;;;15.58;49.10;99758.38;5038645;28;45379;-70